Time;durP1;ratioP1;P1;durP2;ratioP2;P2;SDS_P1;SDS_P2;PMS_P1;PMS_P2;Temp;Humidity;BMP_temperature;BMP_pressure;BME280_temperature;BME280_humidity;BME280_pressure;Samples;Min_cycle;Max_cycle;Signal;HPM_P1;HPM_P2
2022/09/20 00:01:11;;;;;;;7.72;2.60;;;;;;;;;;3383877;42;20082;-60
2022/09/20 00:03:38;;;;;;;6.17;2.33;;;;;;;;;;3381800;42;20094;-58
2022/09/20 00:06:06;;;;;;;5.50;2.10;;;;;;;;;;3392904;42;20097;-58
2022/09/20 00:08:32;;;;;;;6.47;2.20;;;;;;;;;;3392889;42;20098;-58
2022/09/20 00:11:01;;;;;;;7.15;2.28;;;;;;;;;;3384159;42;20106;-60
2022/09/20 00:13:27;;;;;;;7.07;2.55;;;;;;;;;;3392901;42;20160;-59
2022/09/20 00:15:53;;;;;;;6.37;2.30;;;;;;;;;;3392866;42;20090;-58
2022/09/20 00:18:19;;;;;;;6.43;2.22;;;;;;;;;;3392897;42;20164;-59
2022/09/20 00:20:46;;;;;;;7.07;2.30;;;;;;;;;;3393556;42;20110;-63
2022/09/20 00:23:12;;;;;;;5.70;2.60;;;;;;;;;;3393145;42;20536;-58
2022/09/20 00:25:38;;;;;;;7.18;2.30;;;;;;;;;;3384328;42;20092;-60
2022/09/20 00:28:04;;;;;;;7.87;2.30;;;;;;;;;;3394033;42;20100;-61
2022/09/20 00:30:33;;;;;;;6.10;2.35;;;;;;;;;;3394330;42;20548;-57
2022/09/20 00:32:59;;;;;;;9.07;2.88;;;;;;;;;;3383750;42;20086;-58
2022/09/20 00:35:26;;;;;;;9.95;2.40;;;;;;;;;;3394079;42;20560;-58
2022/09/20 00:37:52;;;;;;;6.47;2.65;;;;;;;;;;3382973;42;20101;-59
2022/09/20 00:40:19;;;;;;;7.90;2.30;;;;;;;;;;3394288;42;20098;-58
2022/09/20 00:42:46;;;;;;;7.95;2.47;;;;;;;;;;3394299;42;20657;-58
2022/09/20 00:45:26;;;;;;;8.55;2.45;;;;;;;;;;3384547;42;20082;-58
2022/09/20 00:48:08;;;;;;;7.47;2.50;;;;;;;;;;3385488;42;20089;-59
2022/09/20 00:50:41;;;;;;;8.65;2.50;;;;;;;;;;3385325;42;20581;-64
2022/09/20 00:53:20;;;;;;;7.30;2.60;;;;;;;;;;3394356;42;20095;-58
2022/09/20 00:55:51;;;;;;;5.90;2.20;;;;;;;;;;3381838;42;20133;-60
2022/09/20 00:58:17;;;;;;;6.10;2.03;;;;;;;;;;3384063;42;20098;-61
2022/09/20 01:00:43;;;;;;;6.43;2.22;;;;;;;;;;3382091;42;20759;-58
2022/09/20 01:03:09;;;;;;;5.68;2.10;;;;;;;;;;3383980;42;20561;-59
2022/09/20 01:05:36;;;;;;;5.27;1.90;;;;;;;;;;3380941;42;20658;-57
2022/09/20 01:08:02;;;;;;;7.45;2.10;;;;;;;;;;3372768;42;20079;-58
2022/09/20 01:10:28;;;;;;;7.00;2.10;;;;;;;;;;3378760;42;20489;-58
2022/09/20 01:12:53;;;;;;;6.35;2.20;;;;;;;;;;3385179;42;20521;-60
2022/09/20 01:15:21;;;;;;;6.30;2.00;;;;;;;;;;3393945;42;20090;-60
2022/09/20 01:17:49;;;;;;;6.82;1.90;;;;;;;;;;3385165;42;20082;-59
2022/09/20 01:20:21;;;;;;;7.53;2.00;;;;;;;;;;3377010;42;20122;-59
2022/09/20 01:23:26;;;;;;;5.50;2.00;;;;;;;;;;3386433;42;20108;-58
2022/09/20 01:26:19;;;;;;;9.68;2.20;;;;;;;;;;3392162;42;20109;-58
2022/09/20 01:28:46;;;;;;;6.00;1.80;;;;;;;;;;3378117;42;20094;-58
2022/09/20 01:31:35;;;;;;;5.93;1.73;;;;;;;;;;3384911;42;20090;-59
2022/09/20 01:34:09;;;;;;;8.85;1.83;;;;;;;;;;3391837;42;20098;-59
2022/09/20 01:37:22;;;;;;;7.57;2.00;;;;;;;;;;3385060;42;20078;-61
2022/09/20 01:40:09;;;;;;;6.50;1.77;;;;;;;;;;3391689;42;20098;-61
2022/09/20 01:42:50;;;;;;;6.17;1.90;;;;;;;;;;3393543;42;20078;-58
2022/09/20 01:45:27;;;;;;;6.20;1.80;;;;;;;;;;3374300;42;20089;-60
2022/09/20 01:47:56;;;;;;;7.07;2.10;;;;;;;;;;3385570;42;20090;-59
2022/09/20 01:50:44;;;;;;;7.43;2.05;;;;;;;;;;3394813;42;20083;-58
2022/09/20 01:53:31;;;;;;;7.47;1.83;;;;;;;;;;3393785;42;20154;-59
2022/09/20 01:56:15;;;;;;;5.73;1.90;;;;;;;;;;3391984;42;20597;-59
2022/09/20 01:59:18;;;;;;;6.88;1.95;;;;;;;;;;3394653;42;20620;-60
2022/09/20 02:01:53;;;;;;;6.25;2.10;;;;;;;;;;3385976;42;20140;-60
2022/09/20 02:04:51;;;;;;;6.10;2.22;;;;;;;;;;3394543;42;20189;-59
2022/09/20 02:07:43;;;;;;;5.00;2.05;;;;;;;;;;3382895;42;20082;-57
2022/09/20 02:10:27;;;;;;;6.17;2.20;;;;;;;;;;3388308;42;20083;-59
2022/09/20 02:13:03;;;;;;;5.63;2.05;;;;;;;;;;3394517;42;20174;-59
2022/09/20 02:15:40;;;;;;;7.20;2.00;;;;;;;;;;3384405;42;20552;-57
2022/09/20 02:18:33;;;;;;;7.93;2.10;;;;;;;;;;3384114;42;20093;-60
2022/09/20 02:21:21;;;;;;;7.38;2.00;;;;;;;;;;3383328;42;20075;-57
2022/09/20 02:24:09;;;;;;;6.37;1.90;;;;;;;;;;3394296;42;20089;-58
2022/09/20 02:27:01;;;;;;;6.05;2.10;;;;;;;;;;3381993;42;20625;-59
2022/09/20 02:30:00;;;;;;;9.98;2.03;;;;;;;;;;3390388;42;20104;-58
2022/09/20 02:32:28;;;;;;;8.30;2.08;;;;;;;;;;3392062;42;20201;-58
2022/09/20 02:35:29;;;;;;;5.60;2.10;;;;;;;;;;3376777;42;20078;-61
2022/09/20 02:38:21;;;;;;;7.17;2.30;;;;;;;;;;3389990;42;20126;-59
2022/09/20 02:41:12;;;;;;;5.97;2.10;;;;;;;;;;3382060;42;20829;-59
2022/09/20 02:44:03;;;;;;;8.27;2.08;;;;;;;;;;3392773;42;20086;-58
2022/09/20 02:46:28;;;;;;;8.93;2.00;;;;;;;;;;3384975;42;20583;-61
2022/09/20 02:49:04;;;;;;;6.47;2.07;;;;;;;;;;3393405;42;20082;-59
2022/09/20 02:51:59;;;;;;;6.13;2.03;;;;;;;;;;3394142;42;20098;-62
2022/09/20 02:54:43;;;;;;;6.07;1.73;;;;;;;;;;3381570;42;20204;-58
2022/09/20 02:57:09;;;;;;;7.20;2.00;;;;;;;;;;3394073;42;20095;-59
2022/09/20 02:59:42;;;;;;;6.32;1.75;;;;;;;;;;3394357;42;20109;-60
2022/09/20 03:02:15;;;;;;;5.87;1.90;;;;;;;;;;3372859;42;20099;-61
2022/09/20 03:04:51;;;;;;;9.55;2.10;;;;;;;;;;3382753;42;20091;-59
2022/09/20 03:07:59;;;;;;;7.80;2.20;;;;;;;;;;3391655;42;20185;-60
2022/09/20 03:10:33;;;;;;;7.65;2.10;;;;;;;;;;3384010;42;20117;-59
2022/09/20 03:13:21;;;;;;;5.78;2.10;;;;;;;;;;3372680;42;20638;-60
2022/09/20 03:16:12;;;;;;;9.37;3.20;;;;;;;;;;3382844;42;20095;-64
2022/09/20 03:19:00;;;;;;;14.90;4.40;;;;;;;;;;3391604;42;20079;-59
2022/09/20 03:21:47;;;;;;;9.32;3.10;;;;;;;;;;3384298;42;20102;-57
2022/09/20 03:24:17;;;;;;;11.20;3.90;;;;;;;;;;3382743;42;20513;-56
2022/09/20 03:27:04;;;;;;;10.98;4.85;;;;;;;;;;3383838;42;20579;-59
2022/09/20 03:29:52;;;;;;;12.00;4.40;;;;;;;;;;3379229;42;20102;-57
2022/09/20 03:32:50;;;;;;;8.98;3.33;;;;;;;;;;3392685;42;20099;-60
2022/09/20 03:35:34;;;;;;;10.15;2.53;;;;;;;;;;3383992;42;20870;-60
2022/09/20 03:38:16;;;;;;;7.75;2.70;;;;;;;;;;3393987;42;20177;-60
2022/09/20 03:41:17;;;;;;;7.55;3.08;;;;;;;;;;3393987;42;20105;-59
2022/09/20 03:44:08;;;;;;;10.97;3.47;;;;;;;;;;3369635;42;20158;-60
2022/09/20 03:46:45;;;;;;;8.90;2.63;;;;;;;;;;3383011;42;20087;-60
2022/09/20 03:49:49;;;;;;;10.98;2.78;;;;;;;;;;3374775;42;20091;-60
2022/09/20 03:52:25;;;;;;;17.90;3.00;;;;;;;;;;3390706;42;20119;-60
2022/09/20 03:55:14;;;;;;;10.63;2.80;;;;;;;;;;3393687;42;20556;-60
2022/09/20 03:58:04;;;;;;;7.87;2.47;;;;;;;;;;3390520;42;20094;-59
2022/09/20 04:00:57;;;;;;;8.63;2.42;;;;;;;;;;3382234;42;20114;-59
2022/09/20 04:03:26;;;;;;;10.73;2.60;;;;;;;;;;3382387;42;20168;-60
2022/09/20 04:06:26;;;;;;;9.32;2.75;;;;;;;;;;3395430;42;20138;-60
2022/09/20 04:09:18;;;;;;;6.30;2.38;;;;;;;;;;3394381;42;20138;-60
2022/09/20 04:12:00;;;;;;;9.50;2.33;;;;;;;;;;3371643;42;20181;-59
2022/09/20 04:14:38;;;;;;;8.38;2.58;;;;;;;;;;3394002;42;20105;-61
2022/09/20 04:17:10;;;;;;;8.23;3.00;;;;;;;;;;3395386;42;20138;-61
2022/09/20 04:19:50;;;;;;;13.45;2.75;;;;;;;;;;3394372;42;20094;-60
2022/09/20 04:22:20;;;;;;;7.53;2.42;;;;;;;;;;3379021;42;20126;-61
2022/09/20 04:25:00;;;;;;;9.87;2.40;;;;;;;;;;3377536;42;20086;-59
2022/09/20 04:27:37;;;;;;;7.35;2.40;;;;;;;;;;3385436;42;20091;-57
2022/09/20 04:30:19;;;;;;;10.80;2.70;;;;;;;;;;3385561;42;20666;-59
2022/09/20 04:33:00;;;;;;;8.43;2.38;;;;;;;;;;3392047;42;20613;-59
2022/09/20 04:38:39;;;;;;;6.57;2.30;;;;;;;;;;3394303;42;20078;-58
2022/09/20 04:41:42;;;;;;;7.60;2.60;;;;;;;;;;3394178;42;20091;-62
2022/09/20 04:44:33;;;;;;;7.38;2.30;;;;;;;;;;3390700;42;20458;-59
2022/09/20 04:47:23;;;;;;;7.68;2.40;;;;;;;;;;3393018;42;20091;-59
2022/09/20 04:50:26;;;;;;;8.68;2.38;;;;;;;;;;3393927;42;20160;-60
2022/09/20 04:53:20;;;;;;;8.50;2.33;;;;;;;;;;3394084;42;20113;-59
2022/09/20 04:56:21;;;;;;;11.32;2.70;;;;;;;;;;3395268;42;20082;-60
2022/09/20 04:58:52;;;;;;;11.45;3.08;;;;;;;;;;3395236;42;20078;-60
2022/09/20 05:01:55;;;;;;;9.07;2.42;;;;;;;;;;3383763;42;20102;-59
2022/09/20 05:04:40;;;;;;;7.95;2.80;;;;;;;;;;3381080;42;20091;-61
2022/09/20 05:07:24;;;;;;;9.20;2.70;;;;;;;;;;3383854;42;20205;-62
2022/09/20 05:10:02;;;;;;;10.05;2.60;;;;;;;;;;3384113;42;20109;-61
2022/09/20 05:12:41;;;;;;;6.28;2.67;;;;;;;;;;3394145;42;20097;-60
2022/09/20 05:15:19;;;;;;;7.45;2.60;;;;;;;;;;3383153;42;20537;-60
2022/09/20 05:18:13;;;;;;;7.70;2.70;;;;;;;;;;3393219;42;20145;-59
2022/09/20 05:21:00;;;;;;;6.33;2.30;;;;;;;;;;3396261;42;20134;-61
2022/09/20 05:23:38;;;;;;;9.35;2.55;;;;;;;;;;3367522;42;20086;-60
2022/09/20 05:26:08;;;;;;;8.10;3.17;;;;;;;;;;3393447;42;20084;-61
2022/09/20 05:28:55;;;;;;;6.78;2.90;;;;;;;;;;3374978;42;20090;-62
2022/09/20 05:31:27;;;;;;;6.55;2.25;;;;;;;;;;3382734;42;20150;-59
2022/09/20 05:33:55;;;;;;;7.97;2.40;;;;;;;;;;3393003;42;20079;-62
2022/09/20 05:36:40;;;;;;;8.85;2.40;;;;;;;;;;3393601;42;20580;-60
2022/09/20 05:39:14;;;;;;;9.70;2.88;;;;;;;;;;3375263;42;20087;-62
2022/09/20 05:41:56;;;;;;;6.15;2.67;;;;;;;;;;3377902;42;20098;-62
2022/09/20 05:44:26;;;;;;;5.50;2.20;;;;;;;;;;3386670;42;20093;-59
2022/09/20 05:47:05;;;;;;;8.13;2.20;;;;;;;;;;3385422;42;20130;-60
2022/09/20 05:49:45;;;;;;;8.40;2.50;;;;;;;;;;3374223;42;20545;-60
2022/09/20 05:52:38;;;;;;;13.20;3.10;;;;;;;;;;3383746;42;20608;-57
2022/09/20 05:55:03;;;;;;;8.65;2.75;;;;;;;;;;3377067;42;20164;-61
2022/09/20 05:58:00;;;;;;;7.70;2.40;;;;;;;;;;3392536;42;20094;-59
2022/09/20 06:00:30;;;;;;;6.22;2.80;;;;;;;;;;3390880;42;20630;-60
2022/09/20 06:03:17;;;;;;;6.80;3.20;;;;;;;;;;3383326;42;20142;-60
2022/09/20 06:06:01;;;;;;;6.88;2.92;;;;;;;;;;3376469;42;20548;-58
2022/09/20 06:08:33;;;;;;;8.07;3.20;;;;;;;;;;3370714;42;20083;-60
2022/09/20 06:11:01;;;;;;;13.20;4.13;;;;;;;;;;3393720;42;20570;-58
2022/09/20 06:13:51;;;;;;;7.95;2.60;;;;;;;;;;3382609;42;20103;-59
2022/09/20 06:17:01;;;;;;;8.20;2.45;;;;;;;;;;3391328;42;20157;-61
2022/09/20 06:19:58;;;;;;;8.63;2.72;;;;;;;;;;3394484;42;20175;-60
2022/09/20 06:22:38;;;;;;;6.88;2.30;;;;;;;;;;3391748;42;20101;-58
2022/09/20 06:25:07;;;;;;;6.50;2.17;;;;;;;;;;3371624;42;20146;-59
2022/09/20 06:27:49;;;;;;;6.05;2.25;;;;;;;;;;3393482;42;20137;-59
2022/09/20 06:30:20;;;;;;;5.45;2.25;;;;;;;;;;3383773;42;20583;-58
2022/09/20 06:32:54;;;;;;;7.68;2.30;;;;;;;;;;3378378;42;20182;-59
2022/09/20 06:35:21;;;;;;;6.93;2.60;;;;;;;;;;3382235;42;20157;-59
2022/09/20 06:43:30;;;;;;;5.32;2.20;;;;;;;;;;3377624;42;20143;-59
2022/09/20 06:45:56;;;;;;;8.60;1.95;;;;;;;;;;3392788;42;20121;-59
2022/09/20 06:48:24;;;;;;;5.68;1.90;;;;;;;;;;3392133;42;20160;-60
2022/09/20 06:50:51;;;;;;;7.97;2.00;;;;;;;;;;3391708;42;20101;-60
2022/09/20 06:53:18;;;;;;;7.50;2.10;;;;;;;;;;3383561;42;20173;-59
2022/09/20 06:55:44;;;;;;;5.80;1.90;;;;;;;;;;3373455;42;20102;-61
2022/09/20 06:58:10;;;;;;;5.00;1.83;;;;;;;;;;3380696;42;20682;-59
2022/09/20 07:00:38;;;;;;;5.95;1.60;;;;;;;;;;3382056;42;20121;-60
2022/09/20 07:03:05;;;;;;;5.50;1.80;;;;;;;;;;3382216;42;20173;-58
2022/09/20 07:05:31;;;;;;;4.40;1.50;;;;;;;;;;3382231;42;20095;-59
2022/09/20 07:07:57;;;;;;;5.25;1.70;;;;;;;;;;3383359;42;20085;-59
2022/09/20 07:10:26;;;;;;;5.75;1.55;;;;;;;;;;3383353;42;20099;-59
2022/09/20 07:12:58;;;;;;;4.90;1.77;;;;;;;;;;3383294;42;20111;-59
2022/09/20 07:15:25;;;;;;;5.37;1.60;;;;;;;;;;3381228;42;20481;-61
2022/09/20 07:17:51;;;;;;;5.28;1.70;;;;;;;;;;3383424;42;20095;-61
2022/09/20 07:20:19;;;;;;;4.40;1.50;;;;;;;;;;3383110;42;20107;-60
2022/09/20 07:22:45;;;;;;;4.40;1.60;;;;;;;;;;3383564;42;20550;-63
2022/09/20 07:25:11;;;;;;;5.68;1.70;;;;;;;;;;3380521;42;20086;-60
2022/09/20 07:27:45;;;;;;;5.40;1.97;;;;;;;;;;3383150;42;20188;-59
2022/09/20 07:30:12;;;;;;;5.90;1.90;;;;;;;;;;3373860;42;20507;-61
2022/09/20 07:32:39;;;;;;;4.80;1.50;;;;;;;;;;3383077;42;20121;-59
2022/09/20 07:35:09;;;;;;;4.28;1.50;;;;;;;;;;3380397;42;20151;-59
2022/09/20 07:37:35;;;;;;;7.35;1.95;;;;;;;;;;3375522;42;20091;-60
2022/09/20 07:40:02;;;;;;;4.40;1.50;;;;;;;;;;3376353;42;20654;-59
2022/09/20 07:42:29;;;;;;;4.10;1.35;;;;;;;;;;3385109;42;20173;-58
2022/09/20 07:44:54;;;;;;;4.25;1.50;;;;;;;;;;3385578;42;20614;-59
2022/09/20 07:47:26;;;;;;;4.90;1.60;;;;;;;;;;3387936;42;20673;-61
2022/09/20 07:49:52;;;;;;;5.37;1.50;;;;;;;;;;3384519;42;20087;-59
2022/09/20 07:52:18;;;;;;;4.82;1.40;;;;;;;;;;3385052;42;20568;-57
2022/09/20 07:54:44;;;;;;;4.95;1.17;;;;;;;;;;3383373;42;20094;-61
2022/09/20 07:57:11;;;;;;;4.85;1.40;;;;;;;;;;3385123;42;20086;-59
2022/09/20 07:59:37;;;;;;;4.32;1.50;;;;;;;;;;3387249;42;20101;-58
2022/09/20 08:02:03;;;;;;;5.53;1.50;;;;;;;;;;3385337;42;20165;-59
2022/09/20 08:04:32;;;;;;;6.35;1.83;;;;;;;;;;3384988;42;20181;-59
2022/09/20 08:07:01;;;;;;;4.18;1.30;;;;;;;;;;3377149;42;20170;-60
2022/09/20 08:09:27;;;;;;;4.53;1.30;;;;;;;;;;3385307;42;20095;-59
2022/09/20 08:11:55;;;;;;;4.03;1.10;;;;;;;;;;3385417;42;20075;-59
2022/09/20 08:14:21;;;;;;;6.38;1.10;;;;;;;;;;3381295;42;20647;-58
2022/09/20 08:16:47;;;;;;;4.00;1.20;;;;;;;;;;3384324;42;20688;-56
2022/09/20 08:19:20;;;;;;;4.65;1.17;;;;;;;;;;3385993;42;20145;-58
2022/09/20 08:21:46;;;;;;;5.83;1.13;;;;;;;;;;3385400;42;20084;-59
2022/09/20 08:24:13;;;;;;;3.92;1.30;;;;;;;;;;3384392;42;20138;-58
2022/09/20 08:26:38;;;;;;;6.10;1.30;;;;;;;;;;3384884;42;20079;-59
2022/09/20 08:29:05;;;;;;;5.97;1.15;;;;;;;;;;3385884;42;20152;-59
2022/09/20 08:31:35;;;;;;;7.23;1.37;;;;;;;;;;3384969;42;20083;-59
2022/09/20 08:34:05;;;;;;;4.20;1.30;;;;;;;;;;3385672;42;20652;-59
2022/09/20 08:36:31;;;;;;;4.57;1.30;;;;;;;;;;3384419;42;20638;-58
2022/09/20 08:38:57;;;;;;;5.03;1.30;;;;;;;;;;3383515;42;20555;-59
2022/09/20 08:41:25;;;;;;;5.05;1.33;;;;;;;;;;3384759;42;20079;-61
2022/09/20 08:43:54;;;;;;;4.83;1.33;;;;;;;;;;3385488;42;20150;-59
2022/09/20 08:46:24;;;;;;;5.80;1.17;;;;;;;;;;3385712;42;20087;-58
2022/09/20 08:48:51;;;;;;;6.22;1.30;;;;;;;;;;3371487;42;20503;-58
2022/09/20 08:51:18;;;;;;;4.88;1.38;;;;;;;;;;3384656;42;20553;-61
2022/09/20 08:53:52;;;;;;;4.50;1.38;;;;;;;;;;3381708;42;20593;-60
2022/09/20 08:56:18;;;;;;;6.00;1.70;;;;;;;;;;3380636;42;20149;-60
2022/09/20 08:58:45;;;;;;;4.50;1.60;;;;;;;;;;3382631;42;20146;-61
2022/09/20 09:01:31;;;;;;;5.38;1.75;;;;;;;;;;3380181;42;20106;-58
2022/09/20 09:04:18;;;;;;;4.93;1.52;;;;;;;;;;3377768;42;20098;-58
2022/09/20 09:06:44;;;;;;;4.93;1.60;;;;;;;;;;3386682;42;20106;-61
2022/09/20 09:09:18;;;;;;;8.10;1.90;;;;;;;;;;3375868;42;20101;-58
2022/09/20 09:11:45;;;;;;;6.60;1.80;;;;;;;;;;3376065;42;20141;-61
2022/09/20 09:17:00;;;;;;;5.00;1.77;;;;;;;;;;3384073;42;20116;-60
2022/09/20 09:19:32;;;;;;;4.80;1.60;;;;;;;;;;3384395;42;20504;-58
2022/09/20 09:22:03;;;;;;;6.72;1.73;;;;;;;;;;3382773;42;20075;-60
2022/09/20 09:24:32;;;;;;;4.90;1.60;;;;;;;;;;3384133;42;20094;-60
2022/09/20 09:27:13;;;;;;;6.55;1.80;;;;;;;;;;3384973;42;20090;-62
2022/09/20 09:29:52;;;;;;;4.53;1.40;;;;;;;;;;3382553;42;20091;-58
2022/09/20 09:32:23;;;;;;;4.13;1.50;;;;;;;;;;3382964;42;20086;-59
2022/09/20 09:34:49;;;;;;;5.40;1.60;;;;;;;;;;3383237;42;20150;-61
2022/09/20 09:37:32;;;;;;;4.45;1.55;;;;;;;;;;3384924;42;20093;-59
2022/09/20 09:40:15;;;;;;;5.90;1.95;;;;;;;;;;3380939;42;20110;-60
2022/09/20 09:42:55;;;;;;;6.57;1.83;;;;;;;;;;3381682;42;20237;-59
2022/09/20 09:45:27;;;;;;;6.63;2.00;;;;;;;;;;3384480;42;20546;-60
2022/09/20 09:47:58;;;;;;;6.22;1.88;;;;;;;;;;3382859;42;20517;-60
2022/09/20 09:50:30;;;;;;;5.32;2.00;;;;;;;;;;3380154;42;20091;-59
2022/09/20 09:52:59;;;;;;;5.03;1.65;;;;;;;;;;3384009;42;20095;-61
2022/09/20 09:55:51;;;;;;;5.90;1.92;;;;;;;;;;3388393;42;20649;-60
2022/09/20 09:58:27;;;;;;;5.33;1.90;;;;;;;;;;3379552;42;20098;-59
2022/09/20 10:00:53;;;;;;;5.75;2.15;;;;;;;;;;3382711;42;20086;-60
2022/09/20 10:03:39;;;;;;;7.35;1.88;;;;;;;;;;3383816;42;20091;-59
2022/09/20 10:06:15;;;;;;;5.65;2.30;;;;;;;;;;3377448;42;20103;-60
2022/09/20 10:09:02;;;;;;;8.60;1.98;;;;;;;;;;3393385;42;20236;-58
2022/09/20 10:12:08;;;;;;;6.10;1.80;;;;;;;;;;3393427;42;20146;-62
2022/09/20 10:15:16;;;;;;;7.47;1.90;;;;;;;;;;3383604;42;20628;-58
2022/09/20 10:18:20;;;;;;;5.03;1.90;;;;;;;;;;3377771;42;20109;-60
2022/09/20 10:21:17;;;;;;;9.05;2.28;;;;;;;;;;3390660;42;20095;-61
2022/09/20 10:23:45;;;;;;;7.25;1.90;;;;;;;;;;3392511;42;20556;-61
2022/09/20 10:26:20;;;;;;;5.10;1.80;;;;;;;;;;3394373;42;20712;-59
2022/09/20 10:29:01;;;;;;;5.57;2.10;;;;;;;;;;3389744;42;20535;-58
2022/09/20 10:31:46;;;;;;;5.47;2.00;;;;;;;;;;3383961;42;20185;-61
2022/09/20 10:34:23;;;;;;;6.90;2.05;;;;;;;;;;3393940;42;20094;-59
2022/09/20 10:36:57;;;;;;;7.40;2.10;;;;;;;;;;3375532;42;20152;-58
2022/09/20 10:39:39;;;;;;;6.77;2.03;;;;;;;;;;3372037;42;20229;-60
2022/09/20 10:45:22;;;;;;;8.00;2.10;;;;;;;;;;3376786;42;20511;-59
2022/09/20 10:48:03;;;;;;;6.22;1.92;;;;;;;;;;3384512;42;20587;-59
2022/09/20 10:50:47;;;;;;;6.45;2.05;;;;;;;;;;3385122;42;20109;-60
2022/09/20 10:53:28;;;;;;;5.30;1.90;;;;;;;;;;3383549;42;20117;-58
2022/09/20 10:56:25;;;;;;;5.95;2.20;;;;;;;;;;3392756;42;20183;-60
2022/09/20 10:58:58;;;;;;;5.72;2.13;;;;;;;;;;3390915;42;20090;-61
2022/09/20 11:02:08;;;;;;;5.95;2.45;;;;;;;;;;3393619;42;20122;-58
2022/09/20 11:04:59;;;;;;;5.72;2.40;;;;;;;;;;3382695;42;20575;-59
2022/09/20 11:08:00;;;;;;;6.13;2.20;;;;;;;;;;3380424;42;20078;-59
2022/09/20 11:10:35;;;;;;;5.50;2.20;;;;;;;;;;3372038;42;20105;-59
2022/09/20 11:13:07;;;;;;;7.18;2.85;;;;;;;;;;3382495;42;20565;-59
2022/09/20 11:15:44;;;;;;;5.00;2.00;;;;;;;;;;3389839;42;20176;-61
2022/09/20 11:18:19;;;;;;;5.70;2.03;;;;;;;;;;3374848;42;20142;-60
2022/09/20 11:20:48;;;;;;;6.90;2.23;;;;;;;;;;3383610;42;20078;-59
2022/09/20 11:23:24;;;;;;;6.45;2.40;;;;;;;;;;3382847;42;20083;-59
2022/09/20 11:25:53;;;;;;;7.07;2.50;;;;;;;;;;3382740;42;20140;-59
2022/09/20 11:28:45;;;;;;;6.85;2.40;;;;;;;;;;3378163;42;20556;-60
2022/09/20 11:31:39;;;;;;;7.85;2.55;;;;;;;;;;3387229;42;20582;-61
2022/09/20 11:34:19;;;;;;;8.63;2.33;;;;;;;;;;3374426;42;20098;-61
2022/09/20 11:37:01;;;;;;;6.32;2.30;;;;;;;;;;3379266;42;20086;-63
2022/09/20 11:39:41;;;;;;;6.97;2.58;;;;;;;;;;3386659;42;20117;-61
2022/09/20 11:42:22;;;;;;;8.00;2.60;;;;;;;;;;3377521;42;20579;-60
2022/09/20 11:44:48;;;;;;;6.03;2.42;;;;;;;;;;3378449;42;20082;-61
2022/09/20 11:47:31;;;;;;;9.93;2.77;;;;;;;;;;3395326;42;20136;-60
2022/09/20 11:50:31;;;;;;;6.45;2.20;;;;;;;;;;3386252;42;20171;-60
2022/09/20 11:53:10;;;;;;;6.70;2.60;;;;;;;;;;3387754;42;20109;-59
2022/09/20 11:55:47;;;;;;;5.65;2.60;;;;;;;;;;3394424;42;20105;-59
2022/09/20 11:58:21;;;;;;;5.60;2.20;;;;;;;;;;3388116;42;20584;-61
2022/09/20 12:00:53;;;;;;;6.20;2.00;;;;;;;;;;3395397;42;20101;-59
2022/09/20 12:03:31;;;;;;;6.72;2.58;;;;;;;;;;3380206;42;20074;-60
2022/09/20 12:06:04;;;;;;;6.50;2.40;;;;;;;;;;3388535;42;20078;-58
2022/09/20 12:08:35;;;;;;;5.45;2.03;;;;;;;;;;3388683;42;20098;-61
2022/09/20 12:11:06;;;;;;;7.13;2.30;;;;;;;;;;3385561;42;20637;-63
2022/09/20 12:13:35;;;;;;;6.17;2.30;;;;;;;;;;3385726;42;20090;-61
2022/09/20 12:16:01;;;;;;;5.45;2.00;;;;;;;;;;3378255;42;20091;-62
2022/09/20 12:18:28;;;;;;;6.28;2.22;;;;;;;;;;3388051;42;20510;-62
2022/09/20 12:20:55;;;;;;;5.47;2.20;;;;;;;;;;3396412;42;20521;-62
2022/09/20 12:23:40;;;;;;;6.30;2.28;;;;;;;;;;3393922;42;20193;-60
2022/09/20 12:26:06;;;;;;;6.60;2.03;;;;;;;;;;3397884;42;20622;-61
2022/09/20 12:28:34;;;;;;;6.75;2.50;;;;;;;;;;3387997;42;20554;-62
2022/09/20 12:31:21;;;;;;;7.57;2.85;;;;;;;;;;3388611;42;20540;-61
2022/09/20 12:34:17;;;;;;;7.13;3.10;;;;;;;;;;3399896;42;20089;-60
2022/09/20 12:36:52;;;;;;;6.38;2.60;;;;;;;;;;3393995;42;20105;-61
2022/09/20 12:39:26;;;;;;;6.00;2.20;;;;;;;;;;3395255;42;20082;-61
2022/09/20 12:41:57;;;;;;;6.43;2.90;;;;;;;;;;3382329;42;20105;-61
2022/09/20 12:44:39;;;;;;;7.38;2.42;;;;;;;;;;3372905;42;20117;-64
2022/09/20 12:47:19;;;;;;;6.55;2.55;;;;;;;;;;3394158;42;20098;-62
2022/09/20 12:52:57;;;;;;;6.00;2.80;;;;;;;;;;3393822;42;20096;-62
2022/09/20 12:55:26;;;;;;;7.00;2.80;;;;;;;;;;3393480;42;20110;-61
2022/09/20 12:58:12;;;;;;;6.10;2.70;;;;;;;;;;3395166;42;20086;-62
2022/09/20 13:00:43;;;;;;;7.43;3.10;;;;;;;;;;3394849;42;20074;-62
2022/09/20 13:03:11;;;;;;;7.30;3.30;;;;;;;;;;3393816;42;20086;-60
2022/09/20 13:05:39;;;;;;;8.27;3.10;;;;;;;;;;3394391;42;20126;-62
2022/09/20 13:08:16;;;;;;;7.30;3.25;;;;;;;;;;3384869;42;20090;-61
2022/09/20 13:10:54;;;;;;;9.40;3.28;;;;;;;;;;3383418;42;20095;-62
2022/09/20 13:13:40;;;;;;;8.55;3.40;;;;;;;;;;3380002;42;20633;-63
2022/09/20 13:16:06;;;;;;;7.18;3.25;;;;;;;;;;3384729;42;20926;-62
2022/09/20 13:18:33;;;;;;;7.90;2.90;;;;;;;;;;3380915;42;20091;-62
2022/09/20 13:21:04;;;;;;;6.85;3.20;;;;;;;;;;3373419;42;20079;-61
2022/09/20 13:23:32;;;;;;;6.75;3.17;;;;;;;;;;3382242;42;20166;-64
2022/09/20 13:26:01;;;;;;;7.55;3.20;;;;;;;;;;3385044;42;20090;-62
2022/09/20 13:28:51;;;;;;;7.07;3.45;;;;;;;;;;3388246;42;20093;-61
2022/09/20 13:31:20;;;;;;;8.73;3.03;;;;;;;;;;3384159;42;20126;-61
2022/09/20 13:33:47;;;;;;;7.07;2.88;;;;;;;;;;3394333;42;20572;-62
2022/09/20 13:36:13;;;;;;;6.80;3.08;;;;;;;;;;3393701;42;20099;-60
2022/09/20 13:38:39;;;;;;;6.55;2.72;;;;;;;;;;3383567;42;20117;-61
2022/09/20 13:41:11;;;;;;;6.80;3.20;;;;;;;;;;3383490;42;20095;-61
2022/09/20 13:43:42;;;;;;;7.17;3.10;;;;;;;;;;3392153;42;20091;-57
2022/09/20 13:46:21;;;;;;;6.78;2.83;;;;;;;;;;3371634;42;20106;-61
2022/09/20 13:48:54;;;;;;;7.75;3.03;;;;;;;;;;3384813;42;20102;-61
2022/09/20 13:51:25;;;;;;;7.00;2.97;;;;;;;;;;3393138;42;20575;-63
2022/09/20 13:53:51;;;;;;;8.90;2.90;;;;;;;;;;3393773;42;20191;-61
2022/09/20 13:56:21;;;;;;;8.43;2.63;;;;;;;;;;3372588;42;20103;-60
2022/09/20 13:58:48;;;;;;;7.10;2.90;;;;;;;;;;3383580;42;20769;-60
2022/09/20 14:01:38;;;;;;;8.35;3.00;;;;;;;;;;3384869;42;20086;-61
2022/09/20 14:04:06;;;;;;;8.07;3.00;;;;;;;;;;3396076;42;20560;-62
2022/09/20 14:06:32;;;;;;;7.32;3.10;;;;;;;;;;3389641;42;20086;-63
2022/09/20 14:08:59;;;;;;;7.57;3.47;;;;;;;;;;3393977;42;20134;-61
2022/09/20 14:11:26;;;;;;;7.75;3.30;;;;;;;;;;3373409;42;20132;-61
2022/09/20 14:13:54;;;;;;;9.35;3.20;;;;;;;;;;3384802;42;20162;-61
2022/09/20 14:16:20;;;;;;;8.48;3.13;;;;;;;;;;3375157;42;20181;-62
2022/09/20 14:18:47;;;;;;;7.32;3.30;;;;;;;;;;3383612;42;20083;-61
2022/09/20 14:21:16;;;;;;;7.47;2.80;;;;;;;;;;3381850;42;20132;-61
2022/09/20 14:23:52;;;;;;;7.43;3.10;;;;;;;;;;3364942;42;20138;-61
2022/09/20 14:26:38;;;;;;;8.43;3.35;;;;;;;;;;3393413;42;20078;-65
2022/09/20 14:29:27;;;;;;;6.38;2.67;;;;;;;;;;3385019;42;20090;-61
2022/09/20 14:31:53;;;;;;;9.80;2.92;;;;;;;;;;3382291;42;20091;-62
2022/09/20 14:34:19;;;;;;;7.97;2.80;;;;;;;;;;3383979;42;20592;-62
2022/09/20 14:36:45;;;;;;;7.03;2.92;;;;;;;;;;3393156;42;20083;-60
2022/09/20 14:39:13;;;;;;;11.10;2.83;;;;;;;;;;3382758;42;20079;-61
2022/09/20 14:41:40;;;;;;;7.55;2.80;;;;;;;;;;3392927;42;20100;-60
2022/09/20 14:44:23;;;;;;;6.80;2.95;;;;;;;;;;3383700;42;20797;-63
2022/09/20 14:46:49;;;;;;;7.83;3.20;;;;;;;;;;3382925;42;20098;-62
2022/09/20 14:49:24;;;;;;;9.88;4.10;;;;;;;;;;3381440;42;20079;-61
2022/09/20 14:52:13;;;;;;;8.80;3.75;;;;;;;;;;3383702;42;20102;-62
2022/09/20 14:54:40;;;;;;;8.73;3.03;;;;;;;;;;3392649;42;20191;-60
2022/09/20 14:57:07;;;;;;;7.67;3.47;;;;;;;;;;3384364;42;20090;-62
2022/09/20 14:59:42;;;;;;;9.45;3.28;;;;;;;;;;3392942;42;20110;-62
2022/09/20 15:02:14;;;;;;;9.38;3.78;;;;;;;;;;3393165;42;20102;-59
2022/09/20 15:04:41;;;;;;;7.53;2.90;;;;;;;;;;3383498;42;20204;-59
2022/09/20 15:07:10;;;;;;;8.48;3.05;;;;;;;;;;3374904;42;20091;-61
2022/09/20 15:09:36;;;;;;;9.40;2.80;;;;;;;;;;3392182;42;20094;-60
2022/09/20 15:12:15;;;;;;;7.30;2.80;;;;;;;;;;3384051;42;20156;-60
2022/09/20 15:14:41;;;;;;;6.30;2.70;;;;;;;;;;3392857;42;20087;-61
2022/09/20 15:17:18;;;;;;;6.35;2.72;;;;;;;;;;3383281;42;20137;-60
2022/09/20 15:19:45;;;;;;;8.02;2.78;;;;;;;;;;3392030;42;20134;-60
2022/09/20 15:22:11;;;;;;;9.50;2.80;;;;;;;;;;3392620;42;20090;-62
2022/09/20 15:24:37;;;;;;;9.30;3.00;;;;;;;;;;3391789;42;20180;-62
2022/09/20 15:27:04;;;;;;;10.15;2.95;;;;;;;;;;3381339;42;20634;-60
2022/09/20 15:29:30;;;;;;;9.70;2.60;;;;;;;;;;3392860;42;20086;-60
2022/09/20 15:31:56;;;;;;;8.02;2.70;;;;;;;;;;3392408;42;20086;-60
2022/09/20 15:34:22;;;;;;;6.30;2.70;;;;;;;;;;3392378;42;20089;-61
2022/09/20 15:36:49;;;;;;;8.52;2.55;;;;;;;;;;3383794;42;20158;-60
2022/09/20 15:39:15;;;;;;;7.05;3.00;;;;;;;;;;3383579;42;20164;-61
2022/09/20 15:41:44;;;;;;;5.85;2.40;;;;;;;;;;3392307;42;20086;-60
2022/09/20 15:44:10;;;;;;;7.95;2.88;;;;;;;;;;3392553;42;20090;-58
2022/09/20 15:46:36;;;;;;;7.10;2.90;;;;;;;;;;3380604;42;20465;-60
2022/09/20 15:49:05;;;;;;;7.22;3.30;;;;;;;;;;3392925;42;20465;-62
2022/09/20 15:51:31;;;;;;;8.95;3.40;;;;;;;;;;3392747;42;20098;-58
2022/09/20 15:53:59;;;;;;;8.00;3.42;;;;;;;;;;3392929;42;20113;-58